Time;durP1;ratioP1;P1;durP2;ratioP2;P2;SDS_P1;SDS_P2;PMS_P1;PMS_P2;Temp;Humidity;BMP_temperature;BMP_pressure;BME280_temperature;BME280_humidity;BME280_pressure;Samples;Min_cycle;Max_cycle;Signal;HPM_P1;HPM_P2
2022/11/13 00:01:17;;;;;;;17.15;10.93;;;10.70;99.90;;;;;;6155966;23;20010;-81
2022/11/13 00:03:43;;;;;;;16.00;11.40;;;10.70;99.90;;;;;;6157703;23;20001;-81
2022/11/13 00:06:10;;;;;;;15.38;10.65;;;10.60;99.90;;;;;;6156646;23;20013;-81
2022/11/13 00:08:36;;;;;;;15.27;11.18;;;10.70;99.90;;;;;;6180311;23;20008;-81
2022/11/13 00:11:05;;;;;;;15.48;11.32;;;10.70;99.90;;;;;;6157089;23;20029;-81
2022/11/13 00:13:31;;;;;;;17.92;11.60;;;10.60;99.90;;;;;;6155411;23;20444;-81
2022/11/13 00:15:58;;;;;;;18.60;11.65;;;10.60;99.90;;;;;;6156935;23;20447;-81
2022/11/13 00:18:24;;;;;;;15.18;11.00;;;10.60;99.90;;;;;;6156843;23;20006;-81
2022/11/13 00:20:49;;;;;;;19.40;12.30;;;10.60;99.90;;;;;;6156624;23;20413;-81
2022/11/13 00:23:36;;;;;;;18.17;11.70;;;10.60;99.90;;;;;;6154917;23;20009;-81
2022/11/13 00:26:14;;;;;;;16.73;11.95;;;10.60;99.90;;;;;;6173916;23;20024;-81
2022/11/13 00:28:40;;;;;;;14.10;10.93;;;10.60;99.90;;;;;;6160440;23;20080;-81
2022/11/13 00:31:07;;;;;;;15.55;10.73;;;10.60;99.90;;;;;;6135817;23;20056;-81
2022/11/13 00:33:36;;;;;;;17.58;10.95;;;10.60;99.90;;;;;;6186175;23;20001;-81
2022/11/13 00:36:07;;;;;;;17.70;10.93;;;10.60;99.90;;;;;;6159808;23;20008;-81
2022/11/13 00:38:34;;;;;;;14.77;11.02;;;10.60;99.90;;;;;;6159797;23;20005;-81
2022/11/13 00:41:00;;;;;;;17.13;11.13;;;10.60;99.90;;;;;;6159526;23;20429;-81
2022/11/13 00:43:27;;;;;;;17.83;11.48;;;10.60;99.90;;;;;;6159448;23;20001;-81
2022/11/13 00:45:53;;;;;;;16.15;11.50;;;10.60;99.90;;;;;;6185973;23;20061;-81
2022/11/13 00:48:19;;;;;;;17.42;11.40;;;10.60;99.90;;;;;;6186324;23;20005;-85
2022/11/13 00:50:46;;;;;;;16.05;11.60;;;10.60;99.90;;;;;;6160479;23;20005;-85
2022/11/13 00:53:11;;;;;;;14.30;11.20;;;10.50;99.90;;;;;;6135510;23;20001;-87
2022/11/13 00:55:37;;;;;;;15.35;11.40;;;10.60;99.90;;;;;;6160487;23;20023;-86
2022/11/13 00:58:06;;;;;;;16.25;11.55;;;10.50;99.90;;;;;;6160699;23;20005;-87
2022/11/13 01:00:32;;;;;;;16.00;10.93;;;10.50;99.90;;;;;;6161784;23;20028;-87
2022/11/13 01:02:58;;;;;;;13.52;10.98;;;10.50;99.90;;;;;;6135664;23;20005;-85
2022/11/13 01:05:25;;;;;;;16.67;11.65;;;10.50;99.90;;;;;;6159919;23;20005;-85
2022/11/13 01:07:51;;;;;;;16.25;11.77;;;10.50;99.90;;;;;;6186031;23;20429;-85
2022/11/13 01:10:17;;;;;;;15.05;10.32;;;10.50;99.90;;;;;;6134867;23;20012;-85
2022/11/13 01:12:42;;;;;;;16.60;11.18;;;10.50;99.90;;;;;;6135093;23;20005;-85
2022/11/13 01:15:08;;;;;;;15.40;10.55;;;10.50;99.90;;;;;;6134712;23;20001;-85
2022/11/13 01:17:34;;;;;;;14.45;11.02;;;10.50;99.90;;;;;;6135239;23;20036;-85
2022/11/13 01:20:00;;;;;;;14.07;10.15;;;10.50;99.90;;;;;;6186230;23;20005;-87
2022/11/13 01:22:26;;;;;;;14.93;10.80;;;10.50;99.90;;;;;;6135886;23;20005;-87
2022/11/13 01:24:52;;;;;;;18.52;11.73;;;10.50;99.90;;;;;;6156775;23;20009;-87
2022/11/13 01:27:17;;;;;;;17.73;10.90;;;10.50;99.90;;;;;;6183590;23;20013;-86
2022/11/13 01:29:43;;;;;;;14.85;10.77;;;10.40;99.90;;;;;;6135650;23;20437;-87
2022/11/13 01:32:09;;;;;;;14.73;10.75;;;10.40;99.90;;;;;;6160912;23;20018;-87
2022/11/13 01:34:34;;;;;;;14.40;11.30;;;10.40;99.90;;;;;;6136058;23;20051;-81
2022/11/13 01:37:00;;;;;;;16.17;11.35;;;10.40;99.90;;;;;;6159758;23;20008;-85
2022/11/13 01:39:26;;;;;;;15.30;10.65;;;10.40;99.90;;;;;;6159715;23;20016;-85
2022/11/13 01:41:51;;;;;;;14.00;10.90;;;10.40;99.90;;;;;;6160081;23;20063;-85
2022/11/13 01:44:18;;;;;;;15.90;11.00;;;10.40;99.90;;;;;;6160064;23;20080;-85
2022/11/13 01:46:54;;;;;;;15.80;10.82;;;10.30;99.90;;;;;;6185842;23;20057;-85
2022/11/13 01:49:25;;;;;;;14.15;10.80;;;10.30;99.90;;;;;;6186531;23;20001;-85
2022/11/13 01:52:01;;;;;;;15.70;11.52;;;10.30;99.90;;;;;;6186152;23;20027;-84
2022/11/13 01:54:32;;;;;;;16.10;11.60;;;10.30;99.90;;;;;;6159919;23;20009;-81
2022/11/13 01:56:58;;;;;;;14.70;10.75;;;10.30;99.90;;;;;;6159480;23;20001;-81
2022/11/13 01:59:33;;;;;;;15.90;11.23;;;10.30;99.90;;;;;;6186728;23;20424;-86
2022/11/13 02:01:59;;;;;;;14.55;11.57;;;10.30;99.90;;;;;;6187394;23;20083;-86
2022/11/13 02:04:26;;;;;;;17.75;11.23;;;10.20;99.90;;;;;;6136635;23;20019;-86
2022/11/13 02:06:58;;;;;;;15.80;11.63;;;10.20;99.90;;;;;;6136549;23;20005;-87
2022/11/13 02:09:26;;;;;;;16.08;10.88;;;10.20;99.90;;;;;;6161088;23;20329;-87
2022/11/13 02:11:53;;;;;;;13.85;10.82;;;10.20;99.90;;;;;;6159923;23;19997;-87
2022/11/13 02:14:22;;;;;;;15.63;10.98;;;10.20;99.90;;;;;;6160147;23;20009;-87
2022/11/13 02:16:52;;;;;;;15.18;11.23;;;10.20;99.90;;;;;;6186250;23;20001;-87
2022/11/13 02:23:30;;;;;;;15.25;11.43;;;10.10;99.90;;;;;;6085920;23;20014;-86
2022/11/13 02:25:56;;;;;;;14.23;11.38;;;10.10;99.90;;;;;;6095038;23;20026;-87
2022/11/13 02:28:22;;;;;;;16.08;11.50;;;10.10;99.90;;;;;;6181664;23;20005;-87
2022/11/13 02:30:48;;;;;;;17.23;11.15;;;10.00;99.90;;;;;;6137351;23;20069;-87
2022/11/13 02:33:31;;;;;;;14.90;11.73;;;10.00;99.90;;;;;;6136907;23;20007;-86
2022/11/13 02:35:57;;;;;;;15.65;11.50;;;10.00;99.90;;;;;;6187896;23;20005;-88
2022/11/13 02:38:23;;;;;;;13.05;10.68;;;10.00;99.90;;;;;;6136847;23;20032;-87
2022/11/13 02:40:48;;;;;;;15.68;11.10;;;10.00;99.90;;;;;;6136928;23;20013;-87
2022/11/13 02:43:14;;;;;;;14.63;10.98;;;10.00;99.90;;;;;;6136980;23;20005;-85
2022/11/13 02:45:40;;;;;;;14.90;11.15;;;10.00;99.90;;;;;;6111854;23;20440;-85
2022/11/13 02:48:07;;;;;;;15.85;11.38;;;10.00;99.90;;;;;;6160986;23;20005;-85
2022/11/13 02:50:34;;;;;;;15.65;11.18;;;10.00;99.90;;;;;;6136002;23;20056;-85
2022/11/13 02:53:01;;;;;;;16.15;11.50;;;10.00;99.90;;;;;;6160735;23;20027;-85
2022/11/13 02:55:26;;;;;;;15.20;11.45;;;10.00;99.90;;;;;;6136032;23;20020;-85
2022/11/13 02:57:52;;;;;;;15.10;11.45;;;10.00;99.90;;;;;;6160458;23;20037;-85
2022/11/13 03:00:18;;;;;;;15.57;11.45;;;10.00;99.90;;;;;;6136087;23;20404;-81
2022/11/13 03:02:44;;;;;;;16.42;11.98;;;10.00;99.90;;;;;;6136113;23;20005;-81
2022/11/13 03:05:10;;;;;;;15.15;10.85;;;10.00;99.90;;;;;;6160359;23;20510;-81
2022/11/13 03:07:39;;;;;;;16.92;11.50;;;10.00;99.90;;;;;;6160374;23;20043;-81
2022/11/13 03:10:05;;;;;;;15.43;11.82;;;10.00;99.90;;;;;;6135785;23;20032;-81
2022/11/13 03:12:31;;;;;;;16.77;11.85;;;9.90;99.90;;;;;;6160604;23;20028;-80
2022/11/13 03:15:00;;;;;;;17.58;11.50;;;10.00;99.90;;;;;;6135830;23;20009;-81
2022/11/13 03:17:26;;;;;;;15.55;11.85;;;10.00;99.90;;;;;;6137253;23;20428;-85
2022/11/13 03:19:51;;;;;;;15.88;11.77;;;10.00;99.90;;;;;;6161103;23;20059;-85
2022/11/13 03:22:17;;;;;;;13.48;10.63;;;10.00;99.90;;;;;;6135768;23;20039;-85
2022/11/13 03:24:43;;;;;;;14.90;12.00;;;9.90;99.90;;;;;;6186563;23;20008;-85
2022/11/13 03:27:09;;;;;;;15.70;11.10;;;10.00;99.90;;;;;;6160278;23;20021;-85
2022/11/13 03:32:57;;;;;;;14.50;10.95;;;9.90;99.90;;;;;;6186707;23;20443;-81
2022/11/13 03:36:12;;;;;;;14.27;10.70;;;9.90;99.90;;;;;;6159977;23;20005;-82
2022/11/13 03:38:38;;;;;;;13.13;11.40;;;9.90;99.90;;;;;;6184274;23;20088;-81
2022/11/13 03:41:04;;;;;;;16.17;11.80;;;9.90;99.90;;;;;;6160237;23;20029;-81
2022/11/13 03:43:30;;;;;;;15.95;11.25;;;9.90;99.90;;;;;;6159969;23;20444;-82
2022/11/13 03:45:55;;;;;;;15.73;11.55;;;9.90;99.90;;;;;;6135480;23;20463;-81
2022/11/13 03:48:21;;;;;;;17.00;11.38;;;9.90;99.90;;;;;;6160304;23;20052;-80
2022/11/13 03:50:50;;;;;;;16.30;11.13;;;9.90;99.90;;;;;;6187467;23;20009;-87
2022/11/13 03:53:16;;;;;;;15.75;12.07;;;9.90;99.90;;;;;;6160626;23;20002;-87
2022/11/13 03:55:42;;;;;;;14.93;11.23;;;9.90;99.90;;;;;;6136265;23;20015;-86
2022/11/13 03:58:08;;;;;;;14.82;11.25;;;9.90;99.90;;;;;;6161008;23;20425;-87
2022/11/13 04:00:34;;;;;;;15.57;11.45;;;9.90;99.90;;;;;;6160656;23;20007;-87
2022/11/13 04:02:59;;;;;;;15.32;11.90;;;9.80;99.90;;;;;;6136001;23;20009;-87
2022/11/13 04:05:26;;;;;;;13.38;10.60;;;9.80;99.90;;;;;;6136149;23;20036;-87
2022/11/13 04:07:52;;;;;;;13.32;10.57;;;9.80;99.90;;;;;;6160818;23;20005;-85
2022/11/13 04:10:18;;;;;;;16.92;11.05;;;9.80;99.90;;;;;;6159874;23;20472;-85
2022/11/13 04:12:43;;;;;;;14.57;10.60;;;9.80;99.90;;;;;;6160015;23;20066;-85
2022/11/13 04:15:09;;;;;;;16.67;11.23;;;9.70;99.90;;;;;;6110741;23;20013;-85
2022/11/13 04:17:36;;;;;;;13.80;11.75;;;9.70;99.90;;;;;;6110940;23;20005;-85
2022/11/13 04:20:01;;;;;;;15.15;11.10;;;9.70;99.90;;;;;;6186074;23;20001;-85
2022/11/13 04:22:27;;;;;;;16.58;11.05;;;9.70;99.90;;;;;;6159701;23;20005;-85
2022/11/13 04:24:53;;;;;;;13.38;11.10;;;9.70;99.90;;;;;;6159648;23;20511;-81
2022/11/13 04:27:18;;;;;;;17.35;11.02;;;9.70;99.90;;;;;;6135188;23;20099;-82
2022/11/13 04:29:44;;;;;;;17.85;10.77;;;9.70;99.90;;;;;;6159565;23;20009;-81
2022/11/13 04:32:10;;;;;;;16.25;11.75;;;9.70;99.90;;;;;;6135123;23;20001;-81
2022/11/13 04:34:35;;;;;;;13.75;11.15;;;9.70;99.90;;;;;;6159696;23;20009;-81
2022/11/13 04:37:01;;;;;;;17.85;11.90;;;9.70;99.90;;;;;;6159808;23;20016;-82
2022/11/13 04:39:27;;;;;;;15.43;11.77;;;9.60;99.90;;;;;;6199754;23;20075;-85
2022/11/13 04:44:37;;;;;;;16.25;11.93;;;9.60;99.90;;;;;;6193381;23;20082;-81
2022/11/13 04:47:03;;;;;;;16.73;11.75;;;9.60;99.90;;;;;;6139921;23;20008;-82
2022/11/13 04:49:28;;;;;;;14.20;10.90;;;9.60;99.90;;;;;;6215773;23;19997;-82
2022/11/13 04:51:54;;;;;;;17.20;11.30;;;9.60;99.90;;;;;;6189472;23;20114;-82
2022/11/13 04:54:20;;;;;;;18.63;11.75;;;9.50;99.90;;;;;;6139851;23;20012;-82
2022/11/13 04:56:45;;;;;;;15.02;11.18;;;9.50;99.90;;;;;;6164485;23;20016;-81
2022/11/13 04:59:11;;;;;;;15.52;11.95;;;9.50;99.90;;;;;;6189122;23;20016;-81
2022/11/13 05:01:37;;;;;;;14.80;11.68;;;9.50;99.90;;;;;;6215846;23;20009;-81
2022/11/13 05:04:02;;;;;;;13.70;10.93;;;9.40;99.90;;;;;;6164215;23;20016;-81
2022/11/13 05:06:28;;;;;;;15.70;11.77;;;9.40;99.90;;;;;;6215578;23;20031;-81
2022/11/13 05:08:54;;;;;;;16.38;11.57;;;9.40;99.90;;;;;;6189321;23;20051;-81
2022/11/13 05:11:20;;;;;;;17.75;12.45;;;9.40;99.90;;;;;;6214165;23;20016;-81
2022/11/13 05:13:46;;;;;;;14.88;11.65;;;9.40;99.90;;;;;;6215907;23;20004;-81
2022/11/13 05:16:13;;;;;;;17.00;11.07;;;9.30;99.90;;;;;;6164346;23;20008;-81
2022/11/13 05:18:39;;;;;;;16.33;11.95;;;9.30;99.90;;;;;;6189259;23;20005;-81
2022/11/13 05:21:07;;;;;;;16.30;11.68;;;9.30;99.90;;;;;;6215620;23;20039;-81
2022/11/13 05:23:33;;;;;;;15.25;11.15;;;9.30;99.90;;;;;;6215527;23;20080;-81
2022/11/13 05:26:06;;;;;;;12.77;10.85;;;9.30;99.90;;;;;;6215575;23;20005;-81
2022/11/13 05:28:32;;;;;;;14.60;11.30;;;9.30;99.90;;;;;;6214058;23;20420;-81
2022/11/13 05:31:09;;;;;;;15.80;11.50;;;9.20;99.90;;;;;;6189419;23;20079;-82
2022/11/13 05:33:36;;;;;;;14.35;10.63;;;9.20;99.90;;;;;;6215594;23;20001;-82
2022/11/13 05:36:08;;;;;;;16.17;11.00;;;9.20;99.90;;;;;;6188963;23;20087;-82
2022/11/13 05:38:34;;;;;;;17.55;11.38;;;9.20;99.90;;;;;;6188702;23;20087;-82
2022/11/13 05:41:05;;;;;;;14.45;10.90;;;9.20;99.90;;;;;;6215519;23;20421;-82
2022/11/13 05:43:31;;;;;;;14.77;11.60;;;9.20;99.90;;;;;;6213924;23;20009;-82
2022/11/13 05:46:07;;;;;;;14.73;11.18;;;9.10;99.90;;;;;;6164218;23;20016;-81
2022/11/13 05:48:33;;;;;;;16.33;11.55;;;9.10;99.90;;;;;;6189110;23;20053;-81
2022/11/13 05:51:10;;;;;;;14.13;11.10;;;9.10;99.90;;;;;;6188941;23;20008;-81
2022/11/13 05:53:36;;;;;;;13.65;10.77;;;9.10;99.90;;;;;;6215542;23;20478;-81
2022/11/13 05:56:21;;;;;;;15.85;11.40;;;9.00;99.90;;;;;;6164291;23;20008;-81
2022/11/13 05:58:47;;;;;;;15.35;10.88;;;9.00;99.90;;;;;;6215574;23;20004;-81
2022/11/13 06:01:17;;;;;;;14.80;11.52;;;9.00;99.90;;;;;;6189636;23;20036;-81
2022/11/13 06:03:43;;;;;;;14.90;10.63;;;9.00;99.90;;;;;;6217400;23;20005;-82
2022/11/13 06:06:11;;;;;;;13.65;10.68;;;9.00;99.90;;;;;;6190647;23;20004;-81
2022/11/13 06:08:37;;;;;;;12.80;10.90;;;8.90;99.90;;;;;;6217351;23;20001;-81
2022/11/13 06:11:06;;;;;;;15.77;11.07;;;8.90;99.90;;;;;;6190612;23;20004;-81
2022/11/13 06:13:32;;;;;;;12.38;10.10;;;8.90;99.90;;;;;;6215691;23;20376;-81
2022/11/13 06:16:24;;;;;;;13.85;10.18;;;8.80;99.90;;;;;;6165508;23;20008;-81
2022/11/13 06:18:53;;;;;;;14.02;10.88;;;8.80;99.90;;;;;;6215746;23;20011;-81
2022/11/13 06:21:22;;;;;;;16.33;11.93;;;8.80;99.90;;;;;;6166544;23;20013;-81
2022/11/13 06:23:48;;;;;;;15.02;10.93;;;8.80;99.90;;;;;;6217203;23;20001;-81
2022/11/13 06:26:17;;;;;;;16.08;11.10;;;8.80;99.90;;;;;;6165089;23;20015;-81
2022/11/13 06:28:45;;;;;;;13.00;10.25;;;8.80;99.90;;;;;;6190885;23;20466;-81
2022/11/13 06:31:20;;;;;;;14.10;10.80;;;8.70;99.90;;;;;;6190388;23;19997;-81
2022/11/13 06:33:46;;;;;;;14.25;10.63;;;8.70;99.90;;;;;;6217043;23;20008;-81
2022/11/13 06:36:17;;;;;;;15.68;10.00;;;8.60;99.90;;;;;;6190428;23;20147;-81
2022/11/13 06:38:43;;;;;;;14.73;10.68;;;8.70;99.90;;;;;;6190523;23;20146;-85
2022/11/13 06:41:11;;;;;;;13.23;9.82;;;8.60;99.90;;;;;;6215679;23;20363;-85
2022/11/13 06:43:37;;;;;;;13.32;10.55;;;8.60;99.90;;;;;;6190589;23;20067;-85
2022/11/13 06:46:06;;;;;;;15.68;10.73;;;8.60;99.90;;;;;;6166249;23;20020;-85
2022/11/13 06:48:32;;;;;;;14.88;10.38;;;8.60;99.90;;;;;;6190593;23;20005;-85
2022/11/13 06:51:03;;;;;;;12.65;9.75;;;8.50;99.90;;;;;;6190426;23;20001;-85
2022/11/13 06:53:29;;;;;;;13.25;9.95;;;8.50;99.90;;;;;;6190592;23;19997;-87
2022/11/13 06:55:55;;;;;;;16.55;10.80;;;8.50;99.90;;;;;;6190901;23;20075;-86
2022/11/13 06:58:21;;;;;;;14.23;10.50;;;8.50;99.90;;;;;;6166305;23;20142;-87
2022/11/13 07:00:47;;;;;;;14.32;10.23;;;8.50;99.90;;;;;;6191230;23;20008;-86
2022/11/13 07:03:21;;;;;;;13.43;9.70;;;8.50;99.90;;;;;;6141611;23;20039;-87
2022/11/13 07:05:47;;;;;;;15.70;9.93;;;8.40;99.90;;;;;;6190762;23;20008;-87
2022/11/13 07:08:14;;;;;;;13.93;10.05;;;8.40;99.90;;;;;;6190878;23;19997;-87
2022/11/13 07:10:40;;;;;;;12.88;9.90;;;8.40;99.90;;;;;;6215817;23;20008;-81
2022/11/13 07:13:06;;;;;;;14.07;10.48;;;8.40;99.90;;;;;;6189567;23;20001;-81
2022/11/13 07:15:37;;;;;;;14.75;10.27;;;8.40;99.90;;;;;;6190392;23;20011;-81
2022/11/13 07:18:03;;;;;;;14.45;10.48;;;8.40;99.90;;;;;;6190124;23;20020;-81
2022/11/13 07:20:29;;;;;;;13.75;10.07;;;8.40;99.90;;;;;;6165040;23;20428;-81
2022/11/13 07:22:56;;;;;;;13.25;10.63;;;8.40;99.90;;;;;;6164981;23;20091;-81
2022/11/13 07:25:22;;;;;;;13.40;10.68;;;8.40;99.90;;;;;;6190139;23;20020;-81
2022/11/13 07:27:48;;;;;;;14.23;10.93;;;8.40;99.90;;;;;;6217179;23;20007;-86
2022/11/13 07:30:13;;;;;;;14.82;9.65;;;8.30;99.90;;;;;;6190967;23;20005;-87
2022/11/13 07:32:39;;;;;;;16.85;10.65;;;8.30;99.90;;;;;;6166207;23;20009;-87
2022/11/13 07:35:05;;;;;;;13.00;10.48;;;8.30;99.90;;;;;;6166465;23;20004;-87
2022/11/13 07:37:31;;;;;;;14.57;10.82;;;8.40;99.90;;;;;;6190763;23;20001;-87
2022/11/13 07:39:56;;;;;;;18.35;11.02;;;8.40;99.90;;;;;;6155691;23;20023;-87
2022/11/13 07:42:22;;;;;;;14.60;10.93;;;8.40;99.90;;;;;;6191201;23;20013;-87
2022/11/13 07:44:48;;;;;;;15.07;11.10;;;8.40;99.90;;;;;;6139554;23;20139;-82
2022/11/13 07:47:14;;;;;;;16.00;10.40;;;8.40;99.90;;;;;;6188863;23;20011;-82
2022/11/13 07:49:44;;;;;;;13.73;10.60;;;8.40;99.90;;;;;;6140664;23;20024;-82
2022/11/13 07:52:10;;;;;;;16.10;11.70;;;8.40;99.90;;;;;;6189582;23;20008;-82
2022/11/13 07:54:36;;;;;;;14.00;10.13;;;8.40;99.90;;;;;;6188503;23;20051;-82
2022/11/13 07:57:01;;;;;;;13.55;10.65;;;8.40;99.90;;;;;;6164341;23;20012;-82
2022/11/13 07:59:27;;;;;;;15.82;9.63;;;8.50;99.90;;;;;;6164699;23;20092;-82
2022/11/13 08:01:53;;;;;;;12.82;9.55;;;8.50;99.90;;;;;;6165652;23;20012;-88
2022/11/13 08:04:19;;;;;;;14.25;9.82;;;8.50;99.90;;;;;;6140730;23;20086;-88
2022/11/13 08:06:44;;;;;;;13.02;10.18;;;8.50;99.90;;;;;;6165327;23;20438;-88
2022/11/13 08:09:10;;;;;;;13.95;10.30;;;8.50;99.90;;;;;;6165553;23;20031;-87
2022/11/13 08:11:36;;;;;;;12.80;9.50;;;8.50;99.90;;;;;;6165104;23;20096;-87
2022/11/13 08:14:02;;;;;;;15.27;9.75;;;8.60;99.90;;;;;;6165815;23;20062;-87
2022/11/13 08:16:28;;;;;;;14.55;10.15;;;8.60;99.90;;;;;;6191025;23;20095;-86
2022/11/13 08:18:53;;;;;;;12.43;9.27;;;8.60;99.90;;;;;;6138957;23;20005;-86
2022/11/13 08:21:20;;;;;;;14.05;10.18;;;8.70;99.90;;;;;;6189615;23;20432;-86
2022/11/13 08:23:46;;;;;;;12.02;9.75;;;8.70;99.90;;;;;;6189451;23;20005;-86
2022/11/13 08:26:12;;;;;;;14.65;9.82;;;8.70;99.90;;;;;;6215848;23;20435;-86
2022/11/13 08:28:39;;;;;;;12.18;9.63;;;8.80;99.90;;;;;;6165040;23;20013;-84
2022/11/13 08:31:10;;;;;;;11.80;9.32;;;8.80;99.90;;;;;;6165570;23;20001;-86
2022/11/13 08:33:35;;;;;;;12.98;9.95;;;8.80;99.90;;;;;;6190671;23;20067;-82
2022/11/13 08:36:01;;;;;;;15.75;10.25;;;8.80;99.90;;;;;;6189328;23;20479;-82
2022/11/13 08:38:27;;;;;;;11.10;9.60;;;8.90;99.90;;;;;;6164378;23;20018;-82
2022/11/13 08:40:58;;;;;;;11.95;9.02;;;8.90;99.90;;;;;;6189590;23;20008;-82
2022/11/13 08:43:24;;;;;;;11.63;8.68;;;9.00;99.90;;;;;;6189908;23;20058;-82
2022/11/13 08:45:50;;;;;;;11.68;9.23;;;9.00;99.90;;;;;;6214503;23;20392;-82
2022/11/13 08:48:16;;;;;;;13.40;10.07;;;9.00;99.90;;;;;;6189750;23;20519;-81
2022/11/13 08:50:42;;;;;;;14.30;9.32;;;9.10;99.90;;;;;;6189594;23;19997;-81
2022/11/13 08:53:10;;;;;;;11.82;9.48;;;9.10;99.90;;;;;;6189088;23;20006;-81
2022/11/13 08:55:36;;;;;;;14.15;10.35;;;9.20;99.90;;;;;;6215940;23;20001;-80
2022/11/13 08:58:03;;;;;;;15.90;8.98;;;9.20;99.90;;;;;;6217017;23;20088;-81
2022/11/13 09:00:30;;;;;;;12.85;9.63;;;9.30;99.90;;;;;;6189794;23;20487;-81
2022/11/13 09:03:00;;;;;;;13.70;9.82;;;9.30;99.90;;;;;;6164733;23;20062;-82
2022/11/13 09:05:26;;;;;;;10.57;8.55;;;9.30;99.90;;;;;;6140837;23;20408;-82
2022/11/13 09:08:00;;;;;;;15.40;9.63;;;9.40;99.90;;;;;;6189285;23;20004;-86
2022/11/13 09:10:28;;;;;;;11.50;8.82;;;9.50;99.90;;;;;;6188953;23;20084;-86
2022/11/13 09:13:00;;;;;;;12.57;9.60;;;9.50;99.90;;;;;;6164187;23;20067;-86
2022/11/13 09:15:27;;;;;;;13.27;9.20;;;9.60;99.90;;;;;;6189184;23;20420;-86
2022/11/13 09:18:00;;;;;;;17.27;10.55;;;9.60;99.90;;;;;;6188997;23;20008;-85
2022/11/13 09:20:31;;;;;;;13.63;9.40;;;9.70;99.90;;;;;;6215846;23;20012;-85
2022/11/13 09:23:03;;;;;;;11.68;9.15;;;9.70;99.90;;;;;;6191549;23;20416;-83
2022/11/13 09:25:30;;;;;;;13.85;8.90;;;9.70;99.90;;;;;;6215558;23;20032;-82
2022/11/13 09:28:00;;;;;;;12.55;9.05;;;9.80;99.90;;;;;;6188721;23;20016;-82
2022/11/13 09:30:28;;;;;;;12.77;9.57;;;9.90;99.90;;;;;;6164253;23;20009;-82
2022/11/13 09:32:56;;;;;;;13.20;8.30;;;9.90;99.90;;;;;;6188910;23;19996;-82
2022/11/13 09:35:33;;;;;;;11.45;8.90;;;10.00;99.90;;;;;;6215733;23;20047;-82
2022/11/13 09:38:04;;;;;;;13.30;9.55;;;10.10;99.90;;;;;;6217780;23;20054;-82
2022/11/13 09:40:35;;;;;;;12.65;9.07;;;10.10;99.90;;;;;;6217614;23;20039;-81
2022/11/13 09:43:05;;;;;;;12.43;8.48;;;10.10;99.90;;;;;;6190864;23;20015;-82
2022/11/13 09:45:32;;;;;;;14.20;9.57;;;10.20;99.90;;;;;;6218336;23;20008;-82
2022/11/13 09:48:24;;;;;;;12.40;8.98;;;10.30;99.90;;;;;;6166381;23;20340;-82
2022/11/13 09:50:51;;;;;;;12.20;8.77;;;10.30;99.90;;;;;;6217144;23;20023;-82
2022/11/13 09:53:17;;;;;;;11.95;8.43;;;10.30;99.90;;;;;;6165732;23;20009;-82
2022/11/13 09:56:03;;;;;;;14.43;7.97;;;10.40;99.90;;;;;;6166207;23;20087;-82
2022/11/13 09:58:48;;;;;;;12.82;8.95;;;10.50;99.90;;;;;;6191605;23;20013;-87
2022/11/13 10:01:22;;;;;;;14.45;8.73;;;10.50;99.90;;;;;;6191523;23;20344;-87
2022/11/13 10:03:54;;;;;;;13.07;8.88;;;10.60;99.90;;;;;;6217982;23;20001;-87
2022/11/13 10:06:52;;;;;;;15.88;8.65;;;10.70;99.90;;;;;;6217789;23;20012;-88
2022/11/13 10:09:28;;;;;;;12.50;8.50;;;10.70;99.90;;;;;;6191211;23;20420;-87
2022/11/13 10:11:55;;;;;;;12.93;8.65;;;10.80;99.90;;;;;;6191346;23;20095;-87
2022/11/13 10:14:34;;;;;;;10.15;8.15;;;10.90;99.90;;;;;;6217392;23;20000;-85
2022/11/13 10:17:10;;;;;;;12.00;7.97;;;10.90;99.90;;;;;;6190743;23;20007;-85
2022/11/13 10:20:00;;;;;;;10.63;8.32;;;11.00;99.90;;;;;;6215863;23;20340;-85
2022/11/13 10:22:34;;;;;;;11.73;8.80;;;11.10;99.90;;;;;;6190729;23;20031;-85
2022/11/13 10:25:21;;;;;;;12.15;8.38;;;11.20;99.90;;;;;;6217093;23;20001;-84
2022/11/13 10:27:59;;;;;;;13.32;8.90;;;11.30;99.90;;;;;;6190554;23;20447;-84
2022/11/13 10:30:25;;;;;;;12.25;8.25;;;11.40;99.90;;;;;;6217397;23;20363;-81
2022/11/13 10:32:52;;;;;;;9.57;8.00;;;11.40;99.90;;;;;;6217184;23;20330;-81
2022/11/13 10:35:57;;;;;;;12.07;8.02;;;11.50;99.90;;;;;;6215690;23;20008;-81
2022/11/13 10:38:44;;;;;;;13.05;8.63;;;11.60;99.90;;;;;;6189827;23;20004;-82
2022/11/13 10:41:18;;;;;;;10.50;8.23;;;11.70;99.90;;;;;;6188740;23;20061;-81
2022/11/13 10:44:02;;;;;;;12.05;7.72;;;11.80;99.90;;;;;;6189771;23;20011;-81
2022/11/13 10:46:30;;;;;;;10.13;7.97;;;11.90;99.90;;;;;;6189614;23;20008;-84
2022/11/13 10:48:56;;;;;;;11.57;7.82;;;12.00;99.90;;;;;;6217048;23;19997;-84
2022/11/13 10:51:30;;;;;;;12.35;7.82;;;12.10;99.90;;;;;;6191075;23;20005;-84
2022/11/13 10:53:58;;;;;;;10.20;7.60;;;12.20;99.90;;;;;;6215364;23;20023;-84
2022/11/13 10:56:32;;;;;;;10.18;7.40;;;12.30;99.90;;;;;;6189822;23;20005;-85
2022/11/13 10:59:14;;;;;;;10.55;7.75;;;12.40;99.90;;;;;;6189676;23;20084;-86
2022/11/13 11:01:42;;;;;;;25.05;8.65;;;12.50;99.90;;;;;;6190416;23;20013;-85
2022/11/13 11:04:34;;;;;;;14.95;7.65;;;12.60;99.90;;;;;;6189790;23;20004;-81
2022/11/13 11:07:12;;;;;;;11.40;7.63;;;12.70;99.90;;;;;;6160593;23;20017;-81
2022/11/13 11:09:41;;;;;;;10.95;8.02;;;12.80;99.90;;;;;;6189842;23;19996;-81
2022/11/13 11:12:17;;;;;;;10.38;7.68;;;12.90;99.90;;;;;;6214274;23;20096;-81
2022/11/13 11:14:58;;;;;;;9.70;7.43;;;13.00;99.90;;;;;;6214709;23;20051;-81
2022/11/13 11:17:56;;;;;;;9.35;6.88;;;13.20;99.90;;;;;;6215577;23;20004;-81
2022/11/13 11:20:41;;;;;;;11.27;8.32;;;13.30;99.90;;;;;;6189515;23;20004;-81
2022/11/13 11:23:21;;;;;;;10.80;8.15;;;13.40;99.90;;;;;;6215222;23;19997;-82
2022/11/13 11:26:04;;;;;;;9.55;7.32;;;13.50;99.90;;;;;;6189887;23;20058;-81
2022/11/13 11:28:48;;;;;;;11.25;8.02;;;13.60;99.90;;;;;;6216642;23;20000;-81
2022/11/13 11:31:31;;;;;;;9.73;7.32;;;13.70;99.90;;;;;;6189829;23;20001;-81
2022/11/13 11:34:30;;;;;;;10.07;7.45;;;13.80;99.90;;;;;;6215951;23;20009;-82
2022/11/13 11:37:03;;;;;;;9.48;7.57;;;13.90;99.90;;;;;;6209543;23;20012;-85
2022/11/13 11:39:40;;;;;;;10.48;7.63;;;14.00;99.90;;;;;;6184634;23;20444;-85
2022/11/13 11:42:26;;;;;;;9.60;7.18;;;14.10;99.90;;;;;;6160040;23;20005;-85
2022/11/13 11:45:04;;;;;;;9.35;7.50;;;14.20;99.90;;;;;;6159333;23;20064;-85
2022/11/13 11:47:32;;;;;;;8.73;6.97;;;14.30;99.90;;;;;;6158936;23;20088;-85
2022/11/13 11:49:59;;;;;;;11.20;7.57;;;14.40;99.90;;;;;;6160270;23;20059;-84
2022/11/13 11:53:02;;;;;;;8.80;7.55;;;14.50;99.90;;;;;;6159834;23;20333;-84
2022/11/13 11:55:34;;;;;;;8.95;6.93;;;14.60;99.90;;;;;;6159566;23;20314;-84
2022/11/13 11:58:34;;;;;;;7.95;6.72;;;14.70;99.90;;;;;;6159737;23;20045;-84
2022/11/13 12:01:37;;;;;;;8.90;6.68;;;14.80;99.90;;;;;;6159578;23;20068;-84
2022/11/13 12:04:18;;;;;;;9.35;6.63;;;15.00;99.90;;;;;;6183048;23;20463;-84
2022/11/13 12:07:15;;;;;;;9.48;6.75;;;15.10;99.90;;;;;;6159036;23;20325;-84
2022/11/13 12:09:52;;;;;;;8.65;6.05;;;15.20;99.90;;;;;;6159669;23;20088;-82
2022/11/13 12:12:36;;;;;;;9.07;6.00;;;15.30;99.90;;;;;;6159872;23;20335;-82
2022/11/13 12:15:17;;;;;;;7.80;5.90;;;15.40;99.90;;;;;;6159717;23;20001;-81
2022/11/13 12:18:02;;;;;;;8.60;6.53;;;15.50;99.90;;;;;;6159461;23;20089;-82
2022/11/13 12:20:51;;;;;;;10.95;6.35;;;15.60;99.90;;;;;;6159761;23;20005;-82
2022/11/13 12:23:43;;;;;;;8.65;6.10;;;15.70;99.90;;;;;;6186263;23;20475;-81
2022/11/13 12:26:34;;;;;;;7.95;6.10;;;15.90;99.60;;;;;;6159685;23;20084;-81
2022/11/13 12:29:24;;;;;;;8.35;5.53;;;16.00;99.40;;;;;;6160261;23;20001;-87
2022/11/13 12:31:58;;;;;;;8.27;5.80;;;16.10;99.00;;;;;;6184848;23;20084;-86
2022/11/13 12:34:30;;;;;;;9.50;5.90;;;16.10;98.70;;;;;;6159660;23;20079;-84
2022/11/13 12:36:57;;;;;;;8.00;6.00;;;16.20;98.50;;;;;;6185817;23;20001;-84
2022/11/13 12:39:29;;;;;;;10.50;5.72;;;16.30;98.40;;;;;;6169603;23;20017;-85
2022/11/13 12:42:16;;;;;;;8.13;5.50;;;16.40;98.10;;;;;;6216027;23;20088;-84
2022/11/13 12:44:55;;;;;;;6.75;5.28;;;16.50;97.90;;;;;;6215456;23;20534;-84
2022/11/13 12:47:21;;;;;;;7.60;5.63;;;16.60;97.80;;;;;;6215616;23;20004;-84
2022/11/13 12:50:02;;;;;;;7.57;5.63;;;16.70;97.70;;;;;;6164762;23;20339;-85
2022/11/13 12:52:28;;;;;;;7.10;5.40;;;16.70;97.40;;;;;;6213049;23;20003;-84
2022/11/13 12:55:08;;;;;;;6.63;5.07;;;16.80;97.00;;;;;;6188933;23;20001;-84
2022/11/13 12:57:34;;;;;;;8.73;5.22;;;16.90;97.00;;;;;;6215635;23;20028;-85
2022/11/13 13:00:20;;;;;;;8.18;5.22;;;17.00;97.00;;;;;;6215531;23;20007;-84
2022/11/13 13:03:10;;;;;;;6.60;5.00;;;17.00;97.00;;;;;;6215574;23;20305;-83